Time;durP1;ratioP1;P1;durP2;ratioP2;P2;SDS_P1;SDS_P2;PMS_P1;PMS_P2;Temp;Humidity;BMP_temperature;BMP_pressure;BME280_temperature;BME280_humidity;BME280_pressure;Samples;Min_cycle;Max_cycle;Signal;HPM_P1;HPM_P2
2022/09/03 00:00:48;;;;;;;2.63;1.90;;;;;;;;;;4954957;28;20138;-85
2022/09/03 00:03:24;;;;;;;3.55;1.90;;;;;;;;;;4952117;29;20071;-85
2022/09/03 00:05:54;;;;;;;4.30;2.00;;;;;;;;;;4964743;28;20043;-85
2022/09/03 00:08:29;;;;;;;4.05;2.10;;;;;;;;;;4962720;28;20046;-86
2022/09/03 00:11:01;;;;;;;4.15;2.10;;;;;;;;;;4964591;28;20091;-85
2022/09/03 00:13:30;;;;;;;3.08;2.30;;;;;;;;;;4960338;28;20055;-85
2022/09/03 00:15:58;;;;;;;5.00;2.60;;;;;;;;;;4956568;28;20054;-85
2022/09/03 00:18:27;;;;;;;5.32;2.40;;;;;;;;;;4953912;28;20047;-85
2022/09/03 00:21:07;;;;;;;3.05;2.70;;;;;;;;;;4953126;29;20057;-85
2022/09/03 00:23:36;;;;;;;4.93;2.92;;;;;;;;;;4960766;28;20051;-86
2022/09/03 00:26:05;;;;;;;7.55;3.25;;;;;;;;;;4970868;28;20652;-85
2022/09/03 00:28:42;;;;;;;6.18;3.10;;;;;;;;;;4971794;28;20042;-85
2022/09/03 00:31:17;;;;;;;5.82;3.13;;;;;;;;;;4959597;28;20091;-85
2022/09/03 00:33:44;;;;;;;3.90;3.00;;;;;;;;;;4956794;28;20082;-85
2022/09/03 00:36:16;;;;;;;5.05;2.72;;;;;;;;;;4970317;28;20047;-85
2022/09/03 00:38:42;;;;;;;4.70;2.88;;;;;;;;;;4972041;28;20043;-85
2022/09/03 00:41:10;;;;;;;3.20;2.90;;;;;;;;;;4972546;28;20034;-85
2022/09/03 00:43:39;;;;;;;3.45;2.60;;;;;;;;;;4972352;28;20069;-85
2022/09/03 00:46:06;;;;;;;6.72;2.88;;;;;;;;;;4966066;28;20059;-85
2022/09/03 00:48:36;;;;;;;4.22;2.65;;;;;;;;;;4952667;28;20507;-85
2022/09/03 00:51:11;;;;;;;3.08;2.42;;;;;;;;;;4966112;28;20046;-85
2022/09/03 00:53:50;;;;;;;9.93;2.60;;;;;;;;;;4970941;28;20491;-85
2022/09/03 00:56:22;;;;;;;3.88;2.22;;;;;;;;;;4970982;28;20062;-85
2022/09/03 00:59:01;;;;;;;5.28;2.83;;;;;;;;;;4972289;28;20051;-85
2022/09/03 01:01:30;;;;;;;3.58;2.00;;;;;;;;;;4972235;28;20046;-85
2022/09/03 01:04:20;;;;;;;3.53;2.30;;;;;;;;;;4959262;28;20043;-85
2022/09/03 01:07:04;;;;;;;5.53;2.50;;;;;;;;;;4940284;28;20082;-85
2022/09/03 01:09:36;;;;;;;5.28;2.38;;;;;;;;;;4962109;28;20050;-85
2022/09/03 01:12:13;;;;;;;3.42;2.40;;;;;;;;;;4969955;28;20130;-85
2022/09/03 01:14:52;;;;;;;2.50;2.30;;;;;;;;;;4957674;28;20055;-85
2022/09/03 01:17:21;;;;;;;5.43;2.58;;;;;;;;;;4965407;28;20074;-85
2022/09/03 01:20:02;;;;;;;2.85;2.40;;;;;;;;;;4953817;28;20113;-85
2022/09/03 01:22:40;;;;;;;3.13;2.50;;;;;;;;;;4968981;28;20086;-85
2022/09/03 01:25:18;;;;;;;4.15;2.50;;;;;;;;;;4970024;28;20081;-85
2022/09/03 01:28:02;;;;;;;4.60;2.50;;;;;;;;;;4967826;28;20043;-85
2022/09/03 01:30:31;;;;;;;3.78;2.63;;;;;;;;;;4965398;28;20053;-85
2022/09/03 01:33:01;;;;;;;3.72;2.55;;;;;;;;;;4962694;28;20055;-85
2022/09/03 01:35:35;;;;;;;4.25;2.60;;;;;;;;;;4970256;28;20100;-85
2022/09/03 01:38:15;;;;;;;6.28;2.65;;;;;;;;;;4968537;28;20077;-85
2022/09/03 01:40:50;;;;;;;3.95;2.60;;;;;;;;;;4971401;28;20046;-85
2022/09/03 01:43:22;;;;;;;3.72;2.55;;;;;;;;;;4965871;28;20062;-85
2022/09/03 01:45:52;;;;;;;4.45;2.90;;;;;;;;;;4951699;28;20051;-85
2022/09/03 01:48:30;;;;;;;3.75;2.50;;;;;;;;;;4956362;28;20556;-85
2022/09/03 01:51:16;;;;;;;3.72;2.60;;;;;;;;;;4968574;28;20051;-85
2022/09/03 01:54:02;;;;;;;3.92;2.90;;;;;;;;;;4967296;28;20051;-85
2022/09/03 01:56:32;;;;;;;7.13;3.05;;;;;;;;;;4951922;29;20078;-85
2022/09/03 01:59:09;;;;;;;3.40;2.40;;;;;;;;;;4954831;28;20431;-85
2022/09/03 02:01:44;;;;;;;5.18;2.85;;;;;;;;;;4971355;28;20051;-85
2022/09/03 02:04:16;;;;;;;5.75;2.80;;;;;;;;;;4969269;28;20055;-85
2022/09/03 02:06:45;;;;;;;5.38;2.90;;;;;;;;;;4952928;28;20047;-85
2022/09/03 02:09:11;;;;;;;3.45;3.00;;;;;;;;;;4951449;29;20061;-85
2022/09/03 02:11:38;;;;;;;4.10;2.65;;;;;;;;;;4959124;28;20058;-85
2022/09/03 02:14:04;;;;;;;3.13;2.80;;;;;;;;;;4972005;28;20046;-85
2022/09/03 02:16:32;;;;;;;4.03;2.90;;;;;;;;;;4989159;28;20186;-85
2022/09/03 02:19:00;;;;;;;5.30;3.00;;;;;;;;;;4989780;28;20042;-85
2022/09/03 02:21:29;;;;;;;3.35;2.88;;;;;;;;;;4977989;28;20122;-85
2022/09/03 02:23:55;;;;;;;2.90;2.60;;;;;;;;;;4951340;29;20134;-85
2022/09/03 02:26:23;;;;;;;3.42;2.50;;;;;;;;;;4958872;28;20047;-85
2022/09/03 02:28:50;;;;;;;4.70;2.70;;;;;;;;;;4968229;28;20552;-85
2022/09/03 02:31:16;;;;;;;3.67;2.80;;;;;;;;;;4957284;28;20476;-85
2022/09/03 02:33:44;;;;;;;4.82;2.88;;;;;;;;;;4950184;28;20043;-85
2022/09/03 02:36:11;;;;;;;5.57;2.72;;;;;;;;;;4949406;28;20051;-85
2022/09/03 02:38:37;;;;;;;4.82;3.20;;;;;;;;;;4951439;29;20159;-85
2022/09/03 02:41:04;;;;;;;3.72;2.92;;;;;;;;;;4962638;28;20043;-85
2022/09/03 02:43:41;;;;;;;3.10;2.80;;;;;;;;;;4955903;28;20047;-85
2022/09/03 02:46:09;;;;;;;3.10;2.80;;;;;;;;;;4951812;28;20039;-85
2022/09/03 02:48:35;;;;;;;4.05;3.08;;;;;;;;;;4960508;28;20412;-85
2022/09/03 02:51:01;;;;;;;6.40;3.17;;;;;;;;;;4950460;28;20050;-85
2022/09/03 02:53:27;;;;;;;4.05;3.00;;;;;;;;;;4968954;28;20129;-85
2022/09/03 02:55:58;;;;;;;5.93;2.80;;;;;;;;;;4971035;28;20050;-85
2022/09/03 02:58:25;;;;;;;3.28;2.60;;;;;;;;;;4956238;28;20051;-85
2022/09/03 03:00:51;;;;;;;4.32;2.80;;;;;;;;;;4968433;28;20058;-85
2022/09/03 03:03:17;;;;;;;2.90;2.58;;;;;;;;;;4973568;28;20043;-85
2022/09/03 03:05:48;;;;;;;3.10;2.70;;;;;;;;;;4974281;28;20054;-85
2022/09/03 03:08:15;;;;;;;7.85;2.83;;;;;;;;;;4955389;28;20129;-85
2022/09/03 03:10:43;;;;;;;3.33;2.50;;;;;;;;;;4974022;28;20043;-85
2022/09/03 03:13:09;;;;;;;2.85;2.50;;;;;;;;;;4961278;28;20054;-85
2022/09/03 03:15:36;;;;;;;5.25;2.40;;;;;;;;;;4937490;29;20598;-85
2022/09/03 03:18:02;;;;;;;5.07;2.63;;;;;;;;;;4937790;29;20383;-85
2022/09/03 03:20:28;;;;;;;2.97;2.50;;;;;;;;;;4954719;28;20039;-85
2022/09/03 03:22:54;;;;;;;3.88;2.85;;;;;;;;;;4964878;28;20122;-85
2022/09/03 03:25:20;;;;;;;4.43;2.50;;;;;;;;;;4973432;28;20042;-85
2022/09/03 03:27:46;;;;;;;3.05;2.60;;;;;;;;;;4971604;28;20074;-85
2022/09/03 03:30:12;;;;;;;5.82;2.42;;;;;;;;;;4973709;28;20318;-85
2022/09/03 03:32:38;;;;;;;4.00;2.55;;;;;;;;;;4973917;28;20105;-85
2022/09/03 03:35:05;;;;;;;2.60;2.40;;;;;;;;;;4973638;28;20038;-85
2022/09/03 03:37:32;;;;;;;3.17;2.67;;;;;;;;;;4971960;28;20047;-85
2022/09/03 03:39:58;;;;;;;4.28;2.58;;;;;;;;;;4938918;29;20051;-85
2022/09/03 03:42:24;;;;;;;3.83;2.47;;;;;;;;;;4956378;28;20059;-85
2022/09/03 03:44:50;;;;;;;4.82;2.72;;;;;;;;;;4954882;28;20043;-85
2022/09/03 03:47:17;;;;;;;7.60;2.60;;;;;;;;;;4952234;28;20874;-85
2022/09/03 03:49:43;;;;;;;2.65;2.42;;;;;;;;;;4971575;28;20227;-85
2022/09/03 03:52:09;;;;;;;3.85;2.50;;;;;;;;;;4968194;28;20047;-85
2022/09/03 03:54:35;;;;;;;4.45;2.50;;;;;;;;;;4971653;28;20159;-85
2022/09/03 03:57:01;;;;;;;3.45;2.47;;;;;;;;;;4957563;28;20039;-85
2022/09/03 03:59:27;;;;;;;5.32;2.55;;;;;;;;;;4958244;28;20043;-85
2022/09/03 04:01:54;;;;;;;4.15;2.50;;;;;;;;;;4962146;28;20404;-85
2022/09/03 04:04:20;;;;;;;3.17;2.50;;;;;;;;;;4968609;28;20042;-85
2022/09/03 04:06:46;;;;;;;2.50;2.30;;;;;;;;;;4970691;28;20050;-85
2022/09/03 04:09:12;;;;;;;3.70;2.50;;;;;;;;;;4968346;28;20052;-85
2022/09/03 04:11:38;;;;;;;2.63;2.33;;;;;;;;;;4956402;28;20059;-85
2022/09/03 04:14:04;;;;;;;2.75;2.30;;;;;;;;;;4953618;29;20346;-85
2022/09/03 04:16:31;;;;;;;2.95;2.50;;;;;;;;;;4952088;29;20046;-85
2022/09/03 04:18:57;;;;;;;4.57;2.60;;;;;;;;;;4953478;29;20058;-85
2022/09/03 04:21:25;;;;;;;3.47;2.50;;;;;;;;;;4968187;28;20074;-85
2022/09/03 04:23:52;;;;;;;4.38;2.60;;;;;;;;;;4971431;28;20051;-85
2022/09/03 04:26:19;;;;;;;3.13;2.40;;;;;;;;;;4970447;28;20057;-85
2022/09/03 04:28:45;;;;;;;3.42;2.40;;;;;;;;;;4971438;28;20054;-85
2022/09/03 04:31:13;;;;;;;2.85;2.30;;;;;;;;;;4970598;28;20501;-85
2022/09/03 04:33:39;;;;;;;4.40;2.50;;;;;;;;;;4972563;28;20074;-85
2022/09/03 04:36:05;;;;;;;3.72;2.83;;;;;;;;;;4966277;28;20046;-85
2022/09/03 04:38:32;;;;;;;3.90;2.63;;;;;;;;;;4953031;28;20102;-85
2022/09/03 04:40:59;;;;;;;4.47;2.50;;;;;;;;;;4951548;28;20043;-85
2022/09/03 04:43:26;;;;;;;3.65;2.40;;;;;;;;;;4953025;28;20055;-85
2022/09/03 04:45:55;;;;;;;2.58;2.33;;;;;;;;;;4951198;29;20122;-85
2022/09/03 04:48:21;;;;;;;5.22;2.60;;;;;;;;;;4953032;29;20043;-85
2022/09/03 04:50:47;;;;;;;3.60;2.50;;;;;;;;;;4965235;28;20101;-85
2022/09/03 04:53:13;;;;;;;3.28;2.50;;;;;;;;;;4968593;28;20078;-85
2022/09/03 04:55:39;;;;;;;5.03;2.60;;;;;;;;;;4972296;28;20043;-85
2022/09/03 04:58:08;;;;;;;3.42;2.65;;;;;;;;;;4958590;28;20047;-85
2022/09/03 05:00:36;;;;;;;3.13;2.72;;;;;;;;;;4967204;28;20123;-85
2022/09/03 05:03:03;;;;;;;2.78;2.50;;;;;;;;;;4952384;29;20051;-85
2022/09/03 05:05:30;;;;;;;3.88;2.50;;;;;;;;;;4966301;28;20058;-85
2022/09/03 05:08:02;;;;;;;4.18;2.72;;;;;;;;;;4971552;28;20038;-85
2022/09/03 05:10:29;;;;;;;3.53;2.70;;;;;;;;;;4968510;28;20406;-85
2022/09/03 05:13:03;;;;;;;3.60;2.50;;;;;;;;;;4952400;28;20085;-85
2022/09/03 05:15:30;;;;;;;3.03;2.50;;;;;;;;;;4959685;28;20047;-85
2022/09/03 05:18:00;;;;;;;4.05;2.97;;;;;;;;;;4953287;28;20516;-85
2022/09/03 05:20:28;;;;;;;4.63;2.50;;;;;;;;;;4971313;28;20503;-85
2022/09/03 05:22:55;;;;;;;4.63;2.63;;;;;;;;;;4971694;28;20047;-85
2022/09/03 05:25:21;;;;;;;4.78;2.50;;;;;;;;;;4969049;28;20162;-85
2022/09/03 05:27:48;;;;;;;3.20;2.65;;;;;;;;;;4969628;28;20058;-85
2022/09/03 05:30:14;;;;;;;3.80;2.70;;;;;;;;;;4969300;28;20050;-85
2022/09/03 05:32:40;;;;;;;3.20;2.80;;;;;;;;;;4967346;28;20050;-85
2022/09/03 05:35:07;;;;;;;4.32;3.22;;;;;;;;;;4950937;29;20035;-85
2022/09/03 05:37:33;;;;;;;4.00;3.15;;;;;;;;;;4952183;29;20051;-85
2022/09/03 05:39:59;;;;;;;5.05;2.90;;;;;;;;;;4951944;29;20050;-85
2022/09/03 05:42:27;;;;;;;6.65;2.90;;;;;;;;;;4951489;28;20050;-85
2022/09/03 05:44:53;;;;;;;3.90;2.70;;;;;;;;;;4952184;29;20055;-85
2022/09/03 05:47:19;;;;;;;3.58;2.70;;;;;;;;;;4951628;28;20485;-85
2022/09/03 05:49:45;;;;;;;4.97;3.13;;;;;;;;;;4953934;28;20042;-85
2022/09/03 05:52:11;;;;;;;3.45;3.00;;;;;;;;;;4970527;28;20348;-86
2022/09/03 05:54:38;;;;;;;3.38;2.90;;;;;;;;;;4971420;28;20043;-85
2022/09/03 05:57:04;;;;;;;3.70;2.83;;;;;;;;;;4952107;28;20054;-85
2022/09/03 05:59:30;;;;;;;4.00;2.88;;;;;;;;;;4950300;28;20489;-85
2022/09/03 06:01:56;;;;;;;3.63;2.70;;;;;;;;;;4950842;28;20666;-85
2022/09/03 06:04:22;;;;;;;3.85;3.30;;;;;;;;;;4952082;29;20058;-85
2022/09/03 06:06:48;;;;;;;3.55;2.72;;;;;;;;;;4951486;28;20047;-85
2022/09/03 06:09:19;;;;;;;3.58;2.95;;;;;;;;;;4950193;29;20062;-86
2022/09/03 06:11:46;;;;;;;5.70;2.88;;;;;;;;;;4950951;28;20055;-85
2022/09/03 06:14:13;;;;;;;4.38;2.55;;;;;;;;;;4951329;29;20055;-86
2022/09/03 06:16:43;;;;;;;4.72;3.03;;;;;;;;;;4955994;28;20054;-89
2022/09/03 06:19:10;;;;;;;3.90;3.10;;;;;;;;;;4969368;28;20058;-86
2022/09/03 06:21:41;;;;;;;3.55;3.08;;;;;;;;;;4971018;28;20046;-85
2022/09/03 06:24:08;;;;;;;3.25;2.90;;;;;;;;;;4969303;28;20055;-85
2022/09/03 06:26:34;;;;;;;4.63;3.40;;;;;;;;;;4967507;28;20381;-85
2022/09/03 06:29:00;;;;;;;4.38;2.80;;;;;;;;;;4965399;28;20039;-86
2022/09/03 06:31:26;;;;;;;4.20;2.90;;;;;;;;;;4963013;28;20492;-85
2022/09/03 06:33:53;;;;;;;5.82;3.20;;;;;;;;;;4951101;29;20047;-85
2022/09/03 06:36:20;;;;;;;4.53;2.83;;;;;;;;;;4959910;28;20086;-85
2022/09/03 06:38:46;;;;;;;2.75;2.55;;;;;;;;;;4969385;28;20515;-86
2022/09/03 06:41:13;;;;;;;4.30;3.50;;;;;;;;;;4964687;28;20051;-85
2022/09/03 06:43:41;;;;;;;3.42;2.90;;;;;;;;;;4960666;28;20122;-85
2022/09/03 06:46:07;;;;;;;3.95;2.92;;;;;;;;;;4970476;28;20047;-89
2022/09/03 06:48:34;;;;;;;3.20;2.90;;;;;;;;;;4970684;28;20050;-85
2022/09/03 06:51:01;;;;;;;4.63;2.70;;;;;;;;;;4968335;28;20070;-84
2022/09/03 06:53:28;;;;;;;4.05;2.80;;;;;;;;;;4958585;28;20047;-85
2022/09/03 06:55:56;;;;;;;3.35;2.60;;;;;;;;;;4967748;28;20046;-85
2022/09/03 06:58:22;;;;;;;3.10;2.80;;;;;;;;;;4960041;28;20365;-85
2022/09/03 07:00:48;;;;;;;3.72;2.90;;;;;;;;;;4963595;28;20495;-84
2022/09/03 07:03:16;;;;;;;5.88;2.80;;;;;;;;;;4964489;28;20042;-85
2022/09/03 07:05:43;;;;;;;9.90;3.28;;;;;;;;;;4951071;29;20648;-86
2022/09/03 07:08:09;;;;;;;3.63;2.72;;;;;;;;;;4950738;28;20493;-86
2022/09/03 07:10:38;;;;;;;4.18;2.60;;;;;;;;;;4949481;28;20400;-85
2022/09/03 07:13:07;;;;;;;5.57;3.10;;;;;;;;;;4948938;28;20291;-83
2022/09/03 07:15:34;;;;;;;3.65;2.78;;;;;;;;;;4957885;28;20058;-83
2022/09/03 07:18:00;;;;;;;3.80;2.83;;;;;;;;;;4968737;28;20097;-83
2022/09/03 07:20:26;;;;;;;3.10;2.65;;;;;;;;;;4968020;28;20404;-83
2022/09/03 07:22:56;;;;;;;3.50;2.60;;;;;;;;;;4968737;28;20109;-83
2022/09/03 07:25:23;;;;;;;3.38;2.65;;;;;;;;;;4968078;28;20058;-83
2022/09/03 07:27:50;;;;;;;3.65;2.90;;;;;;;;;;4959604;28;20051;-86
2022/09/03 07:30:18;;;;;;;4.15;2.75;;;;;;;;;;4967251;28;20404;-84
2022/09/03 07:32:45;;;;;;;5.03;2.80;;;;;;;;;;4970005;28;20550;-84
2022/09/03 07:35:12;;;;;;;2.95;2.65;;;;;;;;;;4953536;28;20404;-84
2022/09/03 07:37:40;;;;;;;2.75;2.53;;;;;;;;;;4952870;28;20042;-84
2022/09/03 07:40:07;;;;;;;3.13;2.60;;;;;;;;;;4959777;28;20051;-84
2022/09/03 07:42:34;;;;;;;5.53;2.53;;;;;;;;;;4953036;29;20047;-85
2022/09/03 07:45:04;;;;;;;3.08;2.60;;;;;;;;;;4952615;28;20059;-82
2022/09/03 07:47:31;;;;;;;4.15;2.60;;;;;;;;;;4954229;28;20069;-84
2022/09/03 07:49:57;;;;;;;3.28;2.67;;;;;;;;;;4953569;28;20055;-87
2022/09/03 07:52:23;;;;;;;4.75;2.65;;;;;;;;;;4957709;28;20042;-83
2022/09/03 07:54:49;;;;;;;3.42;2.63;;;;;;;;;;4969864;28;20045;-83
2022/09/03 07:57:15;;;;;;;4.65;2.47;;;;;;;;;;4971462;28;20035;-83
2022/09/03 07:59:41;;;;;;;4.13;2.67;;;;;;;;;;4973257;28;20061;-83
2022/09/03 08:02:07;;;;;;;5.22;2.42;;;;;;;;;;4974111;28;20054;-86
2022/09/03 08:04:35;;;;;;;5.55;2.80;;;;;;;;;;4973511;28;20360;-84
2022/09/03 08:07:02;;;;;;;4.43;2.53;;;;;;;;;;4966753;28;20089;-85
2022/09/03 08:09:28;;;;;;;4.68;2.53;;;;;;;;;;4962235;28;20051;-84
2022/09/03 08:11:54;;;;;;;3.45;2.50;;;;;;;;;;4971266;28;20055;-84
2022/09/03 08:14:21;;;;;;;3.97;2.60;;;;;;;;;;4972973;28;20075;-84
2022/09/03 08:16:47;;;;;;;3.70;2.35;;;;;;;;;;4970023;28;20046;-85
2022/09/03 08:19:13;;;;;;;5.00;2.70;;;;;;;;;;4971520;28;20097;-85
2022/09/03 08:21:43;;;;;;;3.35;2.17;;;;;;;;;;4968438;28;20050;-84
2022/09/03 08:24:09;;;;;;;3.22;2.17;;;;;;;;;;4959854;28;20055;-84
2022/09/03 08:26:36;;;;;;;3.53;2.35;;;;;;;;;;4974984;28;20039;-85
2022/09/03 08:29:03;;;;;;;4.00;2.38;;;;;;;;;;4982087;28;20050;-85
2022/09/03 08:31:29;;;;;;;3.72;2.25;;;;;;;;;;4966245;28;20042;-84
2022/09/03 08:33:57;;;;;;;4.20;2.30;;;;;;;;;;4964200;28;20138;-84
2022/09/03 08:36:24;;;;;;;6.30;2.10;;;;;;;;;;4953239;29;20443;-84
2022/09/03 08:38:54;;;;;;;3.22;2.22;;;;;;;;;;4960502;28;20400;-84
2022/09/03 08:41:39;;;;;;;4.40;2.30;;;;;;;;;;4960770;28;20404;-84
2022/09/03 08:44:14;;;;;;;3.58;2.28;;;;;;;;;;4965187;28;20110;-85
2022/09/03 08:46:58;;;;;;;5.05;2.40;;;;;;;;;;4963872;28;20077;-84
2022/09/03 08:49:33;;;;;;;4.93;2.33;;;;;;;;;;4971494;28;20526;-83
2022/09/03 08:52:01;;;;;;;5.03;2.75;;;;;;;;;;4970189;28;20051;-84
2022/09/03 08:54:29;;;;;;;2.60;2.00;;;;;;;;;;4961371;28;20082;-85
2022/09/03 08:56:57;;;;;;;4.10;2.30;;;;;;;;;;4951495;28;20061;-85
2022/09/03 08:59:24;;;;;;;3.28;2.13;;;;;;;;;;4954128;28;20035;-84
2022/09/03 09:01:59;;;;;;;2.78;2.30;;;;;;;;;;4970752;28;20051;-84
2022/09/03 09:04:33;;;;;;;2.85;2.03;;;;;;;;;;4960119;28;20043;-89
2022/09/03 09:07:03;;;;;;;4.38;2.30;;;;;;;;;;4950941;29;20439;-83
2022/09/03 09:09:32;;;;;;;3.38;2.15;;;;;;;;;;4955699;28;20133;-83
2022/09/03 09:12:08;;;;;;;3.80;2.22;;;;;;;;;;4951913;29;20059;-83
2022/09/03 09:14:43;;;;;;;3.85;2.30;;;;;;;;;;4960534;28;20042;-82
2022/09/03 09:17:28;;;;;;;5.07;2.67;;;;;;;;;;4967615;28;20518;-83
2022/09/03 09:20:01;;;;;;;7.30;2.42;;;;;;;;;;4950597;28;20477;-83
2022/09/03 09:22:34;;;;;;;2.13;1.90;;;;;;;;;;4952208;29;20066;-83
2022/09/03 09:25:04;;;;;;;2.83;2.25;;;;;;;;;;4952706;28;20077;-83
2022/09/03 09:27:31;;;;;;;3.78;2.17;;;;;;;;;;4953619;28;20110;-83
2022/09/03 09:30:00;;;;;;;3.30;2.00;;;;;;;;;;4962289;28;20480;-83
2022/09/03 09:32:27;;;;;;;3.67;2.20;;;;;;;;;;4961679;28;20054;-83
2022/09/03 09:34:53;;;;;;;2.95;2.60;;;;;;;;;;4967473;28;20053;-83
2022/09/03 09:37:20;;;;;;;3.75;2.25;;;;;;;;;;4966424;28;20090;-83
2022/09/03 09:39:55;;;;;;;3.53;2.10;;;;;;;;;;4967734;28;20488;-83
2022/09/03 09:42:21;;;;;;;5.05;2.08;;;;;;;;;;4968299;28;20054;-83
2022/09/03 09:44:47;;;;;;;5.05;2.22;;;;;;;;;;4956967;28;20041;-83
2022/09/03 09:47:20;;;;;;;3.40;2.13;;;;;;;;;;4963050;28;20054;-84
2022/09/03 09:49:46;;;;;;;2.58;1.80;;;;;;;;;;4962648;28;20046;-84
2022/09/03 09:52:14;;;;;;;3.20;2.03;;;;;;;;;;4952795;28;20047;-84
2022/09/03 09:54:41;;;;;;;6.20;2.20;;;;;;;;;;4951804;28;20393;-84
2022/09/03 09:57:08;;;;;;;2.05;1.77;;;;;;;;;;4953950;28;20093;-84
2022/09/03 09:59:36;;;;;;;3.67;2.20;;;;;;;;;;4970616;28;20196;-84
2022/09/03 10:02:14;;;;;;;2.58;1.90;;;;;;;;;;4961892;28;20496;-84
2022/09/03 10:04:42;;;;;;;2.67;2.20;;;;;;;;;;4948864;28;20093;-83
2022/09/03 10:07:38;;;;;;;2.40;2.20;;;;;;;;;;4950906;28;20528;-82
2022/09/03 10:10:06;;;;;;;3.72;2.25;;;;;;;;;;4949302;28;20067;-82
2022/09/03 10:12:34;;;;;;;2.67;2.00;;;;;;;;;;4953115;28;20050;-82
2022/09/03 10:15:03;;;;;;;3.75;2.10;;;;;;;;;;4954671;28;20047;-82
2022/09/03 10:17:48;;;;;;;3.47;2.20;;;;;;;;;;4949995;28;20122;-83
2022/09/03 10:20:30;;;;;;;3.75;2.00;;;;;;;;;;4949783;28;20492;-82
2022/09/03 10:23:01;;;;;;;3.00;2.25;;;;;;;;;;4950304;28;20086;-82
2022/09/03 10:25:49;;;;;;;2.65;2.10;;;;;;;;;;4950312;29;20055;-84
2022/09/03 10:28:15;;;;;;;2.85;2.13;;;;;;;;;;4950483;28;20055;-84
2022/09/03 10:30:59;;;;;;;5.13;2.20;;;;;;;;;;4947671;28;20055;-85
2022/09/03 10:33:58;;;;;;;3.00;2.03;;;;;;;;;;4958881;28;20054;-85
2022/09/03 10:36:28;;;;;;;6.40;2.53;;;;;;;;;;4904254;29;20056;-85
2022/09/03 10:39:01;;;;;;;2.58;1.90;;;;;;;;;;4906104;29;20064;-86
2022/09/03 10:41:40;;;;;;;4.43;2.30;;;;;;;;;;4888710;29;20489;-85
2022/09/03 10:44:25;;;;;;;3.58;1.90;;;;;;;;;;4907468;29;20086;-88
2022/09/03 10:46:54;;;;;;;3.95;2.10;;;;;;;;;;4909023;29;20112;-85
2022/09/03 10:49:39;;;;;;;2.75;2.05;;;;;;;;;;4910123;29;20044;-85
2022/09/03 10:52:06;;;;;;;;;;;;;;;;;;4910893;29;20528;-86
2022/09/03 10:54:37;;;;;;;6.68;2.28;;;;;;;;;;4915561;29;19938;-85
2022/09/03 10:57:03;;;;;;;3.50;2.10;;;;;;;;;;4909425;29;20113;-85
2022/09/03 10:59:47;;;;;;;4.65;2.13;;;;;;;;;;4908654;29;20059;-85
2022/09/03 11:02:25;;;;;;;3.10;2.20;;;;;;;;;;4909858;29;20633;-85
2022/09/03 11:05:09;;;;;;;2.78;2.10;;;;;;;;;;4894765;29;20063;-85
2022/09/03 11:07:38;;;;;;;5.75;2.10;;;;;;;;;;4910813;29;20100;-85
2022/09/03 11:10:11;;;;;;;2.95;2.00;;;;;;;;;;4893553;29;20040;-85
2022/09/03 11:12:43;;;;;;;2.95;1.90;;;;;;;;;;4927943;28;20047;-86
2022/09/03 11:15:11;;;;;;;3.17;1.90;;;;;;;;;;4965146;28;20062;-86
2022/09/03 11:17:40;;;;;;;3.65;2.10;;;;;;;;;;4953461;28;20086;-85
2022/09/03 11:20:14;;;;;;;3.25;2.20;;;;;;;;;;4953799;28;20067;-85
2022/09/03 11:22:41;;;;;;;4.28;2.03;;;;;;;;;;4954107;28;20058;-86
2022/09/03 11:25:09;;;;;;;5.07;2.00;;;;;;;;;;4952763;28;20078;-86
2022/09/03 11:27:49;;;;;;;6.68;2.10;;;;;;;;;;4965166;28;20065;-85
2022/09/03 11:30:23;;;;;;;4.88;2.13;;;;;;;;;;4953634;28;20382;-85
2022/09/03 11:32:53;;;;;;;2.92;2.00;;;;;;;;;;4953056;28;20054;-86
2022/09/03 11:35:25;;;;;;;6.60;2.55;;;;;;;;;;4953294;28;20062;-85
2022/09/03 11:37:58;;;;;;;2.40;2.00;;;;;;;;;;4952851;28;20500;-86
2022/09/03 11:40:37;;;;;;;3.78;2.22;;;;;;;;;;4954060;28;20050;-85
2022/09/03 11:43:26;;;;;;;3.25;1.85;;;;;;;;;;4956674;28;20055;-86
2022/09/03 11:46:11;;;;;;;3.20;2.05;;;;;;;;;;4956279;28;20051;-85
2022/09/03 11:48:44;;;;;;;3.03;1.85;;;;;;;;;;4964743;28;20088;-85
2022/09/03 11:51:18;;;;;;;3.97;2.00;;;;;;;;;;4958788;28;20057;-85
2022/09/03 11:53:53;;;;;;;4.15;2.00;;;;;;;;;;4955971;28;20075;-86
2022/09/03 11:56:19;;;;;;;4.15;2.05;;;;;;;;;;4957102;28;20118;-85
2022/09/03 11:58:46;;;;;;;3.13;2.22;;;;;;;;;;4954735;28;20075;-86
2022/09/03 12:01:19;;;;;;;9.23;2.22;;;;;;;;;;4953047;28;20051;-86
2022/09/03 12:03:48;;;;;;;5.22;2.08;;;;;;;;;;4953043;28;20056;-85
2022/09/03 12:06:14;;;;;;;2.75;2.03;;;;;;;;;;4955190;28;20559;-87
2022/09/03 12:08:53;;;;;;;3.03;1.88;;;;;;;;;;4944352;28;20121;-85
2022/09/03 12:11:44;;;;;;;5.43;1.90;;;;;;;;;;4972742;28;20141;-86
2022/09/03 12:14:13;;;;;;;2.28;1.80;;;;;;;;;;4955385;28;20106;-85
2022/09/03 12:16:58;;;;;;;3.22;1.90;;;;;;;;;;4953256;28;20035;-85
2022/09/03 12:19:42;;;;;;;2.55;1.88;;;;;;;;;;4968939;28;20094;-86
2022/09/03 12:22:16;;;;;;;4.53;2.10;;;;;;;;;;4968532;28;20128;-86
2022/09/03 12:24:43;;;;;;;3.22;1.88;;;;;;;;;;4966731;28;20653;-85
2022/09/03 12:27:12;;;;;;;3.08;1.90;;;;;;;;;;4959781;28;22068;-86
2022/09/03 12:29:39;;;;;;;3.38;1.90;;;;;;;;;;4953384;28;20399;-86
2022/09/03 12:32:07;;;;;;;2.60;1.85;;;;;;;;;;4948605;28;20051;-86
2022/09/03 12:34:33;;;;;;;2.00;1.80;;;;;;;;;;4935941;29;20102;-86
2022/09/03 12:36:59;;;;;;;2.92;1.90;;;;;;;;;;4951445;28;20066;-86
2022/09/03 12:39:26;;;;;;;5.57;1.90;;;;;;;;;;4951197;28;20043;-85
2022/09/03 12:42:00;;;;;;;3.05;1.92;;;;;;;;;;4954971;28;20061;-86
2022/09/03 12:44:28;;;;;;;2.33;1.80;;;;;;;;;;4952763;28;20043;-86
2022/09/03 12:47:11;;;;;;;4.38;2.15;;;;;;;;;;4960931;28;20043;-86
2022/09/03 12:49:40;;;;;;;3.30;1.90;;;;;;;;;;4951758;28;20035;-86
2022/09/03 12:52:18;;;;;;;3.20;1.92;;;;;;;;;;4962863;28;20463;-86
2022/09/03 12:54:50;;;;;;;2.88;1.75;;;;;;;;;;4965528;28;20047;-86
2022/09/03 12:57:20;;;;;;;2.88;1.98;;;;;;;;;;4954737;28;20050;-86
2022/09/03 12:59:47;;;;;;;2.58;2.00;;;;;;;;;;4950758;28;20407;-85
2022/09/03 13:02:19;;;;;;;3.08;1.92;;;;;;;;;;4956926;28;20046;-86
2022/09/03 13:04:45;;;;;;;2.72;1.98;;;;;;;;;;4959265;28;20047;-86
2022/09/03 13:07:21;;;;;;;2.10;1.90;;;;;;;;;;4963442;28;20396;-87
2022/09/03 13:09:47;;;;;;;1.98;1.75;;;;;;;;;;4952639;28;20122;-89
2022/09/03 13:12:21;;;;;;;2.25;1.77;;;;;;;;;;4951534;28;20248;-88
2022/09/03 13:14:47;;;;;;;3.17;2.00;;;;;;;;;;4960261;28;20062;-86
2022/09/03 13:17:22;;;;;;;3.17;2.10;;;;;;;;;;4968553;28;20051;-87
2022/09/03 13:19:48;;;;;;;3.17;2.00;;;;;;;;;;4963299;28;20035;-88
2022/09/03 13:22:33;;;;;;;2.40;1.80;;;;;;;;;;4968979;28;20404;-88
2022/09/03 13:25:02;;;;;;;3.75;2.08;;;;;;;;;;4959037;28;20059;-87
2022/09/03 13:27:52;;;;;;;3.03;1.90;;;;;;;;;;4949879;28;20055;-87
2022/09/03 13:30:23;;;;;;;2.78;1.75;;;;;;;;;;4951697;28;20114;-87
2022/09/03 13:33:15;;;;;;;3.85;2.13;;;;;;;;;;4960827;28;20069;-87
2022/09/03 13:35:47;;;;;;;2.50;1.65;;;;;;;;;;4949865;28;20472;-87
2022/09/03 13:38:13;;;;;;;3.35;1.80;;;;;;;;;;4951331;28;20051;-88
2022/09/03 13:40:48;;;;;;;3.55;1.80;;;;;;;;;;4963388;28;20057;-87
2022/09/03 13:43:26;;;;;;;4.38;2.00;;;;;;;;;;4966655;28;20129;-87
2022/09/03 13:46:01;;;;;;;2.05;1.83;;;;;;;;;;4969416;28;20087;-87
2022/09/03 13:51:23;;;;;;;2.60;1.95;;;;;;;;;;4941923;28;20145;-86
2022/09/03 13:53:55;;;;;;;1.90;1.70;;;;;;;;;;4953174;28;20140;-88
2022/09/03 13:56:30;;;;;;;2.78;2.20;;;;;;;;;;4950168;29;20062;-86
2022/09/03 13:59:01;;;;;;;2.60;1.77;;;;;;;;;;4951912;28;20480;-90
2022/09/03 14:01:36;;;;;;;5.20;1.90;;;;;;;;;;4950406;28;20456;-86
2022/09/03 14:04:02;;;;;;;2.67;2.00;;;;;;;;;;4952092;29;20122;-88
2022/09/03 14:06:28;;;;;;;2.38;1.77;;;;;;;;;;4950408;29;20536;-87
2022/09/03 14:09:04;;;;;;;2.45;1.75;;;;;;;;;;4950843;28;20083;-88
2022/09/03 14:11:50;;;;;;;2.92;2.00;;;;;;;;;;4948983;28;20444;-90
2022/09/03 14:14:35;;;;;;;3.55;2.00;;;;;;;;;;4940594;28;20492;-95
2022/09/03 14:17:31;;;;;;;4.30;2.03;;;;;;;;;;4970293;28;20058;-87
2022/09/03 14:20:03;;;;;;;3.75;1.90;;;;;;;;;;4958821;28;20492;-89
2022/09/03 14:22:34;;;;;;;2.20;1.73;;;;;;;;;;4971049;28;20065;-88
2022/09/03 14:25:04;;;;;;;3.58;2.17;;;;;;;;;;4973725;28;20039;-87
2022/09/03 14:27:31;;;;;;;2.22;1.80;;;;;;;;;;4957060;28;20572;-88
2022/09/03 14:30:16;;;;;;;3.35;1.83;;;;;;;;;;4951179;28;20039;-87
2022/09/03 14:32:45;;;;;;;3.35;2.00;;;;;;;;;;4953999;28;20129;-90
2022/09/03 14:35:31;;;;;;;3.17;1.70;;;;;;;;;;4954187;28;20126;-88
2022/09/03 14:38:15;;;;;;;5.97;2.00;;;;;;;;;;4954565;28;20134;-87
2022/09/03 14:40:42;;;;;;;2.67;1.83;;;;;;;;;;4949182;28;20133;-87
2022/09/03 14:43:08;;;;;;;3.08;1.92;;;;;;;;;;4964662;28;20148;-88
2022/09/03 14:45:34;;;;;;;2.10;1.90;;;;;;;;;;4973707;28;20053;-88
2022/09/03 14:48:20;;;;;;;2.67;1.80;;;;;;;;;;4973332;28;20047;-88
2022/09/03 14:50:55;;;;;;;2.90;1.80;;;;;;;;;;4968488;28;20195;-88
2022/09/03 14:53:40;;;;;;;4.22;1.88;;;;;;;;;;4957834;28;20421;-87
2022/09/03 14:56:24;;;;;;;2.85;1.90;;;;;;;;;;4969017;28;20062;-90
2022/09/03 14:59:03;;;;;;;2.00;1.80;;;;;;;;;;4976642;28;20046;-89
2022/09/03 15:01:33;;;;;;;2.95;1.90;;;;;;;;;;4976003;28;20534;-88
2022/09/03 15:04:02;;;;;;;4.05;2.10;;;;;;;;;;4955659;28;20407;-89
2022/09/03 15:06:34;;;;;;;3.80;1.90;;;;;;;;;;4978163;28;20086;-88